Home   Weather   Canada   Toronto   Past weeks
Flag for Canada

Past Weather in Toronto, Ontario, Canada — July 2020

Currently: 79 °F. Cloudy. (Weather station: Toronto Pearson International Airport, Canada). See more current weather

July 2020 Weather in Toronto — Graph

°F

High & Low Weather Summary for July 2020

 TemperatureHumidityPressure
High95 °F (Jul 2, 3:00 pm)100% (Jul 16, 8:00 pm)30.16 "Hg (Jul 16, 8:00 pm)
Low61 °F (Jul 21, 5:00 am)21% (Jul 5, 2:00 pm)29.59 "Hg (Jul 11, 2:00 pm)
Average77 °F65%29.92 "Hg
* Reported Jul 1 12:00 am — Jul 31 11:00 pm, Toronto. Weather by CustomWeather, © 2021

Note: Actual official high and low records may vary slightly from our data, if they occured in-between our weather recording intervals... More about our weather records

Toronto Weather History for July 1, 2020

Scroll right to see more
 ConditionsComfort  
Time TempWeatherWind HumidityBarometerVisibility
12:00 am
Wed, Jul 1
72 °FPassing clouds.3 mph78%29.98 "Hg15 mi
1:00 am70 °FClear.2 mph83%29.97 "Hg15 mi
2:00 am70 °FClear.No wind78%29.96 "Hg15 mi
3:00 am70 °FClear.No wind78%29.96 "Hg15 mi
4:00 am68 °FClear.No wind83%29.95 "Hg15 mi
5:00 am68 °FClear.2 mph83%29.95 "Hg15 mi
6:00 am66 °FSunny.7 mph83%29.97 "Hg15 mi
7:00 am70 °FSunny.8 mph73%29.98 "Hg15 mi
8:00 am73 °FPassing clouds.6 mph69%29.99 "Hg15 mi
9:00 am77 °FSunny.5 mph61%29.99 "Hg15 mi
10:00 am79 °FPassing clouds.5 mph54%29.99 "Hg15 mi
11:00 am81 °FScattered clouds.8 mph58%29.98 "Hg15 mi
12:00 pm81 °FScattered clouds.8 mph54%29.97 "Hg15 mi
1:00 pm82 °FBroken clouds.6 mph55%29.96 "Hg15 mi
2:00 pm82 °FScattered clouds.9 mph51%29.94 "Hg15 mi
3:00 pm84 °FScattered clouds.13 mph48%29.93 "Hg15 mi
4:00 pm84 °FPassing clouds.10 mph48%29.92 "Hg15 mi
5:00 pm82 °FPassing clouds.9 mph48%29.90 "Hg15 mi
6:00 pm84 °FScattered clouds.9 mph43%29.90 "Hg15 mi
7:00 pm82 °FPassing clouds.8 mph45%29.89 "Hg15 mi
8:00 pm84 °FPassing clouds.12 mph43%29.90 "Hg15 mi
9:00 pm81 °FPassing clouds.10 mph48%29.91 "Hg15 mi
10:00 pm79 °FClear.8 mph48%29.93 "Hg15 mi
11:00 pm79 °FClear.7 mph48%29.93 "Hg15 mi
Weather by CustomWeather, © 2021

See weather overview